createdAt,value
2018-03-01T00:01:43.804Z,-7.83
2018-03-01T00:04:17.510Z,-7.85
2018-03-01T00:06:51.038Z,-7.86
2018-03-01T00:09:24.845Z,-7.91
2018-03-01T00:11:58.474Z,-7.90
2018-03-01T00:14:33.254Z,-7.87
2018-03-01T00:17:06.839Z,-7.92
2018-03-01T00:19:40.613Z,-8.00
2018-03-01T00:25:14.187Z,-7.98
2018-03-01T00:27:47.818Z,-7.98
2018-03-01T00:30:21.498Z,-7.98
2018-03-01T00:32:55.255Z,-8.02
2018-03-01T00:35:28.968Z,-8.00
2018-03-01T00:38:02.556Z,-7.99
2018-03-01T00:40:36.063Z,-7.97
2018-03-01T00:43:09.594Z,-8.05
2018-03-01T00:45:43.324Z,-8.03
2018-03-01T00:48:16.937Z,-8.02
2018-03-01T00:50:50.690Z,-8.02
2018-03-01T00:53:24.255Z,-8.04
2018-03-01T00:55:57.828Z,-8.06
2018-03-01T00:58:31.477Z,-8.03
2018-03-01T01:01:05.005Z,-8.05
2018-03-01T01:03:38.594Z,-8.01
2018-03-01T01:06:14.227Z,-8.00
2018-03-01T01:08:47.878Z,-7.97
2018-03-01T01:11:21.539Z,-7.98
2018-03-01T01:13:55.063Z,-7.93
2018-03-01T01:16:29.019Z,-7.98
2018-03-01T01:19:02.689Z,-8.02
2018-03-01T01:21:36.261Z,-8.02
2018-03-01T01:24:09.885Z,-8.04
2018-03-01T01:26:43.671Z,-8.06
2018-03-01T01:29:17.319Z,-8.12
2018-03-01T01:31:50.965Z,-8.09
2018-03-01T01:34:24.484Z,-8.02
2018-03-01T01:36:58.070Z,-8.00
2018-03-01T01:39:31.622Z,-8.00
2018-03-01T01:42:05.194Z,-7.97
2018-03-01T01:44:38.806Z,-8.01
2018-03-01T01:47:12.451Z,-7.97
2018-03-01T01:49:46.098Z,-7.99
2018-03-01T01:52:19.845Z,-8.03
2018-03-01T01:54:53.691Z,-8.13
2018-03-01T01:57:27.238Z,-8.09
2018-03-01T02:00:00.915Z,-8.10
2018-03-01T02:02:34.538Z,-8.00
2018-03-01T02:05:08.163Z,-8.04
2018-03-01T02:07:41.864Z,-8.08
2018-03-01T02:10:15.434Z,-8.07
2018-03-01T02:12:48.982Z,-8.02
2018-03-01T02:15:22.636Z,-8.09
2018-03-01T02:17:56.327Z,-8.06
2018-03-01T02:20:29.850Z,-8.04
2018-03-01T02:23:03.461Z,-8.08
2018-03-01T02:25:37.133Z,-8.07
2018-03-01T02:28:10.950Z,-8.12
2018-03-01T02:30:44.721Z,-8.09
2018-03-01T02:33:18.291Z,-8.17
2018-03-01T02:35:51.943Z,-8.18
2018-03-01T02:38:25.562Z,-8.18
2018-03-01T02:40:59.142Z,-8.17
2018-03-01T02:43:32.787Z,-8.21
2018-03-01T02:46:06.367Z,-8.15
2018-03-01T02:48:40.130Z,-8.19
2018-03-01T02:51:13.765Z,-8.16
2018-03-01T02:53:47.429Z,-8.21
2018-03-01T02:56:20.925Z,-8.22
2018-03-01T02:58:54.562Z,-8.26
2018-03-01T03:01:28.645Z,-8.26
2018-03-01T03:04:02.161Z,-8.33
2018-03-01T03:06:35.960Z,-8.27
2018-03-01T03:09:09.626Z,-8.29
2018-03-01T03:11:43.378Z,-8.25
2018-03-01T03:14:17.396Z,-8.20
2018-03-01T03:16:51.080Z,-8.18
2018-03-01T03:19:24.771Z,-8.19
2018-03-01T03:21:58.389Z,-8.17
2018-03-01T03:24:32.153Z,-8.12
2018-03-01T03:27:05.762Z,-8.11
2018-03-01T03:29:39.317Z,-8.15
2018-03-01T03:32:13.115Z,-8.07
2018-03-01T03:34:46.723Z,-8.13
2018-03-01T03:37:20.449Z,-8.10
2018-03-01T03:39:53.993Z,-8.06
2018-03-01T03:42:27.692Z,-8.10
2018-03-01T03:45:01.270Z,-8.01
2018-03-01T03:47:34.866Z,-7.97
2018-03-01T03:50:08.434Z,-8.00
2018-03-01T03:52:41.965Z,-7.99
2018-03-01T03:55:15.819Z,-8.00
2018-03-01T03:57:49.557Z,-7.93
2018-03-01T04:00:23.185Z,-7.91
2018-03-01T04:02:56.717Z,-7.95
2018-03-01T04:05:30.403Z,-7.89
2018-03-01T04:08:03.993Z,-7.87
2018-03-01T04:10:37.545Z,-7.85
2018-03-01T04:13:11.241Z,-7.87
2018-03-01T04:15:44.761Z,-7.93
2018-03-01T04:18:18.269Z,-7.89
2018-03-01T04:20:52.023Z,-7.94
2018-03-01T04:23:25.706Z,-7.90
2018-03-01T04:25:59.289Z,-7.92
2018-03-01T04:28:32.896Z,-7.93
2018-03-01T04:31:06.434Z,-7.93
2018-03-01T04:33:39.989Z,-7.96
2018-03-01T04:36:13.569Z,-7.94
2018-03-01T04:38:47.348Z,-8.01
2018-03-01T04:41:20.917Z,-8.09
2018-03-01T04:43:54.450Z,-8.09
2018-03-01T04:46:27.982Z,-8.00
2018-03-01T04:49:01.726Z,-7.93
2018-03-01T04:51:35.390Z,-7.92
2018-03-01T04:54:09.168Z,-7.93
2018-03-01T04:56:42.846Z,-7.87
2018-03-01T04:59:16.422Z,-7.82
2018-03-01T05:01:50.006Z,-7.81
2018-03-01T05:04:23.786Z,-7.77
2018-03-01T05:06:57.460Z,-7.75
2018-03-01T05:09:31.302Z,-7.76
2018-03-01T05:12:04.982Z,-7.69
2018-03-01T05:14:38.634Z,-7.71
2018-03-01T05:17:12.286Z,-7.66
2018-03-01T05:19:45.858Z,-7.65
2018-03-01T05:22:19.514Z,-7.60
2018-03-01T05:24:53.208Z,-7.57
2018-03-01T05:27:26.806Z,-7.64
2018-03-01T05:30:00.382Z,-7.62
2018-03-01T05:32:34.121Z,-7.59
2018-03-01T05:35:07.895Z,-7.56
2018-03-01T05:37:41.718Z,-7.58
2018-03-01T05:40:15.319Z,-7.54
2018-03-01T05:42:48.997Z,-7.56
2018-03-01T05:45:22.814Z,-7.56
2018-03-01T05:47:56.512Z,-7.58
2018-03-01T05:50:30.109Z,-7.64
2018-03-01T05:53:03.645Z,-7.67
2018-03-01T05:55:37.342Z,-7.65
2018-03-01T05:58:10.961Z,-7.68
2018-03-01T06:00:44.711Z,-7.71
2018-03-01T06:03:18.340Z,-7.69
2018-03-01T06:05:52.044Z,-7.72
2018-03-01T06:08:25.574Z,-7.71
2018-03-01T06:10:59.354Z,-7.63
2018-03-01T06:13:33.841Z,-7.58
2018-03-01T06:16:07.926Z,-7.59
2018-03-01T06:18:41.626Z,-7.59
2018-03-01T06:21:15.257Z,-7.56
2018-03-01T06:23:48.990Z,-7.55
2018-03-01T06:26:22.583Z,-7.49
2018-03-01T06:28:56.168Z,-7.52
2018-03-01T06:31:29.703Z,-7.53
2018-03-01T06:34:03.238Z,-7.51
2018-03-01T06:36:36.915Z,-7.50
2018-03-01T06:39:10.698Z,-7.49
2018-03-01T06:41:44.297Z,-7.44
2018-03-01T06:44:18.015Z,-7.41
2018-03-01T06:46:51.554Z,-7.37
2018-03-01T06:49:25.280Z,-7.35
2018-03-01T06:51:59.042Z,-7.29
2018-03-01T06:54:32.770Z,-7.19
2018-03-01T06:57:06.430Z,-7.21
2018-03-01T06:59:40.009Z,-7.11
2018-03-01T07:02:13.761Z,-7.14
2018-03-01T07:04:47.310Z,-7.10
2018-03-01T07:07:21.086Z,-7.07
2018-03-01T07:09:54.746Z,-7.05
2018-03-01T07:12:28.309Z,-7.01
2018-03-01T07:15:02.007Z,-6.94
2018-03-01T07:17:35.542Z,-6.96
2018-03-01T07:20:09.083Z,-6.90
2018-03-01T07:22:42.671Z,-6.84
2018-03-01T07:25:16.311Z,-6.75
2018-03-01T07:27:49.952Z,-6.64
2018-03-01T07:30:23.809Z,-6.49
2018-03-01T07:32:57.394Z,-6.30
2018-03-01T07:35:31.128Z,-6.09
2018-03-01T07:38:04.925Z,-5.50
2018-03-01T07:40:38.414Z,-5.36
2018-03-01T07:43:11.905Z,-5.37
2018-03-01T07:45:45.418Z,-4.68
2018-03-01T07:48:19.115Z,-4.84
2018-03-01T07:50:52.574Z,-4.89
2018-03-01T07:53:26.378Z,-4.99
2018-03-01T07:56:00.027Z,-4.69
2018-03-01T07:58:33.555Z,-4.57
2018-03-01T08:01:07.167Z,-3.59
2018-03-01T08:03:40.726Z,-3.38
2018-03-01T08:06:14.350Z,-3.31
2018-03-01T08:08:47.986Z,-3.03
2018-03-01T08:11:21.654Z,-3.17
2018-03-01T08:13:55.242Z,-3.33
2018-03-01T08:16:29.070Z,-3.52
2018-03-01T08:19:02.694Z,-3.97
2018-03-01T08:21:36.234Z,-3.62
2018-03-01T08:24:09.809Z,-3.74
2018-03-01T08:26:57.200Z,-3.77
2018-03-01T08:29:30.902Z,-3.87
2018-03-01T08:32:04.554Z,-3.70
2018-03-01T08:34:38.170Z,-3.28
2018-03-01T08:37:11.719Z,-3.43
2018-03-01T08:39:45.410Z,-3.96
2018-03-01T08:42:19.223Z,-3.81
2018-03-01T08:44:52.961Z,-3.46
2018-03-01T08:47:26.457Z,-3.46
2018-03-01T08:50:00.164Z,-3.31
2018-03-01T08:52:33.824Z,-3.48
2018-03-01T08:55:07.486Z,-3.71
2018-03-01T08:57:41.113Z,-3.68
2018-03-01T09:00:14.702Z,-3.57
2018-03-01T09:02:48.257Z,-3.53
2018-03-01T09:05:21.899Z,-3.38
2018-03-01T09:07:55.567Z,-3.12
2018-03-01T09:10:29.082Z,-3.27
2018-03-01T09:13:02.693Z,-2.96
2018-03-01T09:15:36.214Z,-1.81
2018-03-01T09:18:09.962Z,-1.30
2018-03-01T09:20:43.682Z,0.20
2018-03-01T09:23:17.240Z,1.01
2018-03-01T09:25:50.939Z,1.11
2018-03-01T09:28:24.570Z,1.16
2018-03-01T09:30:58.221Z,1.52
2018-03-01T09:33:31.866Z,0.91
2018-03-01T09:36:05.426Z,0.70
2018-03-01T09:38:38.975Z,0.08
2018-03-01T09:41:12.565Z,-0.75
2018-03-01T09:43:46.094Z,-0.98
2018-03-01T09:46:19.898Z,-0.54
2018-03-01T09:48:53.653Z,-0.42
2018-03-01T09:51:27.205Z,-0.78
2018-03-01T09:54:00.950Z,-1.16
2018-03-01T09:56:34.553Z,-1.80
2018-03-01T09:59:08.105Z,-1.88
2018-03-01T10:01:41.888Z,-1.69
2018-03-01T10:04:15.548Z,-1.49
2018-03-01T10:06:49.342Z,-1.32
2018-03-01T10:09:22.992Z,-1.24
2018-03-01T10:11:56.762Z,-1.05
2018-03-01T10:14:30.443Z,-1.25
2018-03-01T10:17:04.294Z,-1.07
2018-03-01T10:19:37.954Z,-1.35
2018-03-01T10:22:11.669Z,-1.43
2018-03-01T10:24:45.262Z,-1.28
2018-03-01T10:27:18.815Z,-1.14
2018-03-01T10:29:52.503Z,-1.14
2018-03-01T10:32:26.122Z,-1.12
2018-03-01T10:34:59.771Z,-1.12
2018-03-01T10:37:33.671Z,-1.12
2018-03-01T10:40:07.302Z,-0.82
2018-03-01T10:42:40.914Z,-0.66
2018-03-01T10:45:14.517Z,-0.49
2018-03-01T10:47:48.061Z,-0.56
2018-03-01T10:50:21.671Z,-0.76
2018-03-01T10:52:55.234Z,-0.65
2018-03-01T10:55:28.912Z,-0.58
2018-03-01T10:58:02.547Z,-0.56
2018-03-01T11:00:41.837Z,-0.80
2018-03-01T11:03:15.546Z,-0.62
2018-03-01T11:05:49.191Z,-0.25
2018-03-01T11:08:22.771Z,-0.03
2018-03-01T11:10:56.430Z,-0.02
2018-03-01T11:13:30.062Z,-0.18
2018-03-01T11:16:03.657Z,0.07
2018-03-01T11:18:37.360Z,-0.23
2018-03-01T11:21:11.013Z,-0.36
2018-03-01T11:23:44.591Z,-0.44
2018-03-01T11:26:18.076Z,-0.35
2018-03-01T11:28:51.642Z,-0.39
2018-03-01T11:31:25.286Z,-0.51
2018-03-01T11:33:59.138Z,-0.24
2018-03-01T11:36:32.833Z,-0.13
2018-03-01T11:39:06.483Z,-0.14
2018-03-01T11:41:40.193Z,0.35
2018-03-01T11:44:13.886Z,0.27
2018-03-01T11:46:47.474Z,0.22
2018-03-01T11:49:21.026Z,0.22
2018-03-01T11:51:54.706Z,0.56
2018-03-01T11:54:28.282Z,0.42
2018-03-01T11:57:01.921Z,0.37
2018-03-01T11:59:35.582Z,0.56
2018-03-01T12:02:09.187Z,0.27
2018-03-01T12:04:42.818Z,0.35
2018-03-01T12:07:16.375Z,0.39
2018-03-01T12:09:49.889Z,0.19
2018-03-01T12:12:23.510Z,0.05
2018-03-01T12:14:57.263Z,0.04
2018-03-01T12:17:30.717Z,0.17
2018-03-01T12:20:04.463Z,-0.05
2018-03-01T12:22:37.939Z,0.23
2018-03-01T12:25:11.569Z,0.42
2018-03-01T12:27:45.253Z,0.17
2018-03-01T12:30:19.098Z,0.34
2018-03-01T12:32:52.765Z,0.37
2018-03-01T12:35:26.331Z,0.37
2018-03-01T12:37:59.840Z,0.45
2018-03-01T12:40:33.439Z,0.40
2018-03-01T12:43:07.050Z,0.44
2018-03-01T12:45:40.606Z,0.44
2018-03-01T12:48:14.273Z,0.60
2018-03-01T12:50:47.994Z,0.48
2018-03-01T12:53:21.750Z,0.45
2018-03-01T12:55:55.466Z,0.69
2018-03-01T12:58:29.117Z,0.69
2018-03-01T13:01:02.854Z,0.69
2018-03-01T13:03:36.588Z,0.61
2018-03-01T13:06:10.094Z,0.70
2018-03-01T13:08:43.813Z,0.48
2018-03-01T13:11:17.495Z,0.52
2018-03-01T13:13:51.117Z,0.57
2018-03-01T13:16:24.680Z,0.55
2018-03-01T13:18:58.178Z,0.66
2018-03-01T13:21:31.742Z,0.57
2018-03-01T13:24:05.304Z,0.75
2018-03-01T13:26:38.895Z,0.69
2018-03-01T13:29:12.610Z,0.87
2018-03-01T13:31:48.116Z,0.98
2018-03-01T13:34:22.542Z,1.07
2018-03-01T13:36:56.283Z,1.20
2018-03-01T13:39:30.042Z,1.20
2018-03-01T13:42:20.320Z,1.41
2018-03-01T13:44:54.077Z,1.72
2018-03-01T13:50:25.473Z,1.65
2018-03-01T13:52:59.086Z,1.65
2018-03-01T13:55:32.766Z,1.50
2018-03-01T13:58:06.313Z,1.54
2018-03-01T14:00:39.974Z,1.78
2018-03-01T14:03:13.615Z,1.74
2018-03-01T14:05:59.993Z,1.55
2018-03-01T14:08:33.703Z,1.33
2018-03-01T14:11:07.238Z,1.26
2018-03-01T14:13:43.436Z,1.13
2018-03-01T14:16:16.981Z,0.96
2018-03-01T14:19:05.650Z,1.05
2018-03-01T14:21:40.821Z,0.98
2018-03-01T14:24:14.925Z,1.07
2018-03-01T14:30:05.879Z,1.22
2018-03-01T14:32:39.391Z,1.24
2018-03-01T14:35:13.160Z,1.29
2018-03-01T14:37:46.775Z,1.20
2018-03-01T14:40:20.407Z,1.32
2018-03-01T14:42:54.082Z,1.08
2018-03-01T14:45:27.706Z,1.06
2018-03-01T14:48:01.326Z,0.91
2018-03-01T14:50:34.954Z,1.17
2018-03-01T14:53:08.600Z,1.27
2018-03-01T14:55:42.241Z,1.17
2018-03-01T14:58:15.910Z,1.31
2018-03-01T15:00:49.481Z,1.11
2018-03-01T15:03:23.082Z,1.08
2018-03-01T15:05:56.677Z,0.92
2018-03-01T15:08:30.230Z,0.88
2018-03-01T15:11:03.966Z,0.79
2018-03-01T15:13:37.726Z,0.87
2018-03-01T15:16:11.470Z,0.91
2018-03-01T15:18:45.181Z,0.70
2018-03-01T15:21:18.854Z,0.80
2018-03-01T15:23:52.511Z,0.63
2018-03-01T15:26:26.125Z,0.64
2018-03-01T15:28:59.723Z,0.58
2018-03-01T15:31:33.345Z,0.64
2018-03-01T15:34:07.045Z,0.49
2018-03-01T15:36:40.796Z,0.39
2018-03-01T15:39:14.442Z,0.41
2018-03-01T15:41:47.966Z,0.30
2018-03-01T15:44:21.486Z,0.29
2018-03-01T15:46:55.015Z,0.32
2018-03-01T15:49:28.932Z,0.31
2018-03-01T15:52:02.647Z,0.20
2018-03-01T15:54:36.274Z,0.14
2018-03-01T15:57:09.945Z,0.13
2018-03-01T15:59:43.753Z,-0.06
2018-03-01T16:02:17.366Z,-0.02
2018-03-01T16:04:51.093Z,-0.20
2018-03-01T16:07:24.853Z,-0.01
2018-03-01T16:09:58.650Z,-0.15
2018-03-01T16:12:32.336Z,-0.24
2018-03-01T16:15:06.086Z,-0.36
2018-03-01T16:17:39.745Z,-0.46
2018-03-01T16:20:13.518Z,-0.47
2018-03-01T16:22:47.197Z,-0.55
2018-03-01T16:25:20.773Z,-0.59
2018-03-01T16:27:54.489Z,-0.61
2018-03-01T16:30:28.228Z,-0.65
2018-03-01T16:33:02.279Z,-0.61
2018-03-01T16:35:35.921Z,-0.78
2018-03-01T16:38:09.684Z,-0.82
2018-03-01T16:40:43.367Z,-0.88
2018-03-01T16:43:16.947Z,-0.90
2018-03-01T16:49:15.484Z,-1.10
2018-03-01T16:51:49.183Z,-1.17
2018-03-01T16:54:22.860Z,-1.20
2018-03-01T16:56:56.663Z,-1.30
2018-03-01T16:59:30.255Z,-1.37
2018-03-01T17:02:04.009Z,-1.37
2018-03-01T17:04:37.598Z,-1.41
2018-03-01T17:07:11.265Z,-1.50
2018-03-01T17:09:45.009Z,-1.58
2018-03-01T17:12:18.727Z,-1.65
2018-03-01T17:14:52.521Z,-1.65
2018-03-01T17:17:26.300Z,-1.66
2018-03-01T17:20:00.031Z,-1.67
2018-03-01T17:22:33.686Z,-1.72
2018-03-01T17:25:07.337Z,-1.82
2018-03-01T17:27:41.069Z,-1.82
2018-03-01T17:30:14.645Z,-1.82
2018-03-01T17:32:48.238Z,-1.87
2018-03-01T17:35:21.821Z,-1.90
2018-03-01T17:37:55.421Z,-1.97
2018-03-01T17:40:29.157Z,-2.09
2018-03-01T17:43:02.719Z,-2.10
2018-03-01T17:45:36.402Z,-2.10
2018-03-01T17:48:10.081Z,-2.13
2018-03-01T17:50:43.715Z,-2.15
2018-03-01T17:53:17.350Z,-2.26
2018-03-01T17:55:50.965Z,-2.22
2018-03-01T17:58:24.578Z,-2.16
2018-03-01T18:00:58.430Z,-2.26
2018-03-01T18:03:32.144Z,-2.32
2018-03-01T18:06:05.938Z,-2.39
2018-03-01T18:08:39.860Z,-2.37
2018-03-01T18:11:13.554Z,-2.42
2018-03-01T18:13:47.263Z,-2.45
2018-03-01T18:16:21.050Z,-2.48
2018-03-01T18:18:55.084Z,-2.54
2018-03-01T18:21:29.091Z,-2.53
2018-03-01T18:24:02.633Z,-2.51
2018-03-01T18:26:36.518Z,-2.56
2018-03-01T18:29:10.103Z,-2.64
2018-03-01T18:31:43.746Z,-2.62
2018-03-01T18:34:17.327Z,-2.67
2018-03-01T18:36:50.931Z,-2.67
2018-03-01T18:39:24.676Z,-2.74
2018-03-01T18:41:58.229Z,-2.79
2018-03-01T18:44:31.776Z,-2.80
2018-03-01T18:47:19.063Z,-2.81
2018-03-01T18:49:52.726Z,-2.81
2018-03-01T18:52:26.429Z,-2.90
2018-03-01T18:55:00.179Z,-2.93
2018-03-01T18:57:33.765Z,-2.94
2018-03-01T19:00:07.419Z,-3.00
2018-03-01T19:02:41.362Z,-3.04
2018-03-01T19:05:15.042Z,-3.03
2018-03-01T19:07:48.616Z,-3.12
2018-03-01T19:10:22.385Z,-3.12
2018-03-01T19:12:56.040Z,-3.11
2018-03-01T19:15:29.869Z,-3.21
2018-03-01T19:18:03.450Z,-3.25
2018-03-01T19:20:36.990Z,-3.29
2018-03-01T19:23:10.558Z,-3.34
2018-03-01T19:25:44.212Z,-3.33
2018-03-01T19:28:17.902Z,-3.28
2018-03-01T19:30:51.583Z,-3.34
2018-03-01T19:33:25.302Z,-3.38
2018-03-01T19:35:58.812Z,-3.36
2018-03-01T19:38:32.381Z,-3.40
2018-03-01T19:41:06.101Z,-3.42
2018-03-01T19:43:39.786Z,-3.48
2018-03-01T19:46:13.521Z,-3.53
2018-03-01T19:48:47.165Z,-3.56
2018-03-01T19:51:20.690Z,-3.56
2018-03-01T19:53:54.272Z,-3.62
2018-03-01T19:56:27.965Z,-3.62
2018-03-01T19:59:01.505Z,-3.67
2018-03-01T20:01:35.125Z,-3.69
2018-03-01T20:04:08.702Z,-3.65
2018-03-01T20:06:42.323Z,-3.68
2018-03-01T20:09:15.845Z,-3.74
2018-03-01T20:11:49.378Z,-3.75
2018-03-01T20:14:23.001Z,-3.71
2018-03-01T20:16:56.563Z,-3.76
2018-03-01T20:19:30.193Z,-3.80
2018-03-01T20:22:03.901Z,-3.84
2018-03-01T20:24:37.693Z,-3.87
2018-03-01T20:27:11.387Z,-3.89
2018-03-01T20:29:45.142Z,-3.93
2018-03-01T20:32:18.727Z,-3.91
2018-03-01T20:34:52.514Z,-3.93
2018-03-01T20:37:26.241Z,-3.96
2018-03-01T20:39:59.941Z,-3.98
2018-03-01T20:42:33.822Z,-4.07
2018-03-01T20:45:07.373Z,-4.08
2018-03-01T20:47:40.937Z,-4.10
2018-03-01T20:50:14.577Z,-4.12
2018-03-01T20:52:48.350Z,-4.09
2018-03-01T20:55:21.993Z,-4.04
2018-03-01T20:57:55.656Z,-4.07
2018-03-01T21:00:29.242Z,-4.09
2018-03-01T21:03:02.829Z,-4.13
2018-03-01T21:05:36.413Z,-4.13
2018-03-01T21:08:10.111Z,-4.21
2018-03-01T21:10:43.838Z,-4.26
2018-03-01T21:13:17.378Z,-4.35
2018-03-01T21:15:50.950Z,-4.37
2018-03-01T21:18:24.662Z,-4.35
2018-03-01T21:20:58.310Z,-4.37
2018-03-01T21:23:31.889Z,-4.25
2018-03-01T21:26:05.839Z,-4.32
2018-03-01T21:28:39.452Z,-4.28
2018-03-01T21:31:13.122Z,-4.28
2018-03-01T21:33:46.638Z,-4.31
2018-03-01T21:36:20.226Z,-4.28
2018-03-01T21:38:54.126Z,-4.37
2018-03-01T21:41:27.724Z,-4.41
2018-03-01T21:44:01.470Z,-4.39
2018-03-01T21:46:39.494Z,-4.42
2018-03-01T21:49:13.078Z,-4.44
2018-03-01T21:51:46.634Z,-4.52
2018-03-01T21:54:20.290Z,-4.58
2018-03-01T21:56:54.070Z,-4.55
2018-03-01T21:59:27.594Z,-4.54
2018-03-01T22:02:01.386Z,-4.55
2018-03-01T22:04:35.056Z,-4.43
2018-03-01T22:07:22.587Z,-4.47
2018-03-01T22:09:56.204Z,-4.51
2018-03-01T22:12:29.894Z,-4.52
2018-03-01T22:15:03.522Z,-4.60
2018-03-01T22:17:37.267Z,-4.57
2018-03-01T22:20:10.955Z,-4.57
2018-03-01T22:22:44.751Z,-4.63
2018-03-01T22:25:18.591Z,-4.64
2018-03-01T22:27:52.251Z,-4.62
2018-03-01T22:30:25.790Z,-4.65
2018-03-01T22:32:59.347Z,-4.63
2018-03-01T22:35:33.010Z,-4.60
2018-03-01T22:38:06.645Z,-4.62
2018-03-01T22:40:40.498Z,-4.70
2018-03-01T22:43:14.203Z,-4.73
2018-03-01T22:45:48.047Z,-4.74
2018-03-01T22:48:21.739Z,-4.74
2018-03-01T22:50:55.494Z,-4.76
2018-03-01T22:53:28.989Z,-4.67
2018-03-01T22:56:02.682Z,-4.68
2018-03-01T22:58:36.284Z,-4.70
2018-03-01T23:01:10.017Z,-4.77
2018-03-01T23:03:43.695Z,-4.76
2018-03-01T23:06:17.425Z,-4.79
2018-03-01T23:08:51.009Z,-4.87
2018-03-01T23:11:24.826Z,-4.86
2018-03-01T23:13:58.510Z,-4.80
2018-03-01T23:16:32.170Z,-4.85
2018-03-01T23:19:05.862Z,-4.79
2018-03-01T23:21:39.566Z,-4.85
2018-03-01T23:24:13.216Z,-4.85
2018-03-01T23:26:47.020Z,-4.87
2018-03-01T23:29:20.727Z,-4.91
2018-03-01T23:31:54.441Z,-4.97
2018-03-01T23:34:28.125Z,-5.00
2018-03-01T23:37:01.894Z,-5.02
2018-03-01T23:39:35.478Z,-5.01
2018-03-01T23:42:09.157Z,-5.00
2018-03-01T23:44:42.833Z,-5.01
2018-03-01T23:47:16.436Z,-5.05
2018-03-01T23:49:50.150Z,-5.08
2018-03-01T23:52:23.853Z,-5.16
2018-03-01T23:54:57.382Z,-5.16
2018-03-01T23:57:31.095Z,-5.15
